Time;durP1;ratioP1;P1;durP2;ratioP2;P2;SDS_P1;SDS_P2;PMS_P1;PMS_P2;Temp;Humidity;BMP_temperature;BMP_pressure;BME280_temperature;BME280_humidity;BME280_pressure;Samples;Min_cycle;Max_cycle;Signal;HPM_P1;HPM_P2
2021/08/17 00:01:52;;;;;;;7.93;2.57;;;;;;;13.14;76.03;100387.34;5055696;28;20225;-83
2021/08/17 00:04:18;;;;;;;4.77;1.93;;;;;;;13.14;76.35;100397.19;5055734;28;20209;-83
2021/08/17 00:06:45;;;;;;;5.17;2.03;;;;;;;13.12;76.05;100394.63;5056064;28;20230;-83
2021/08/17 00:09:11;;;;;;;6.90;1.83;;;;;;;13.12;76.37;100383.09;5056067;28;20546;-83
2021/08/17 00:11:38;;;;;;;6.27;1.87;;;;;;;13.14;76.41;100392.69;5055439;28;20229;-83
2021/08/17 00:14:06;;;;;;;5.93;2.13;;;;;;;13.14;76.62;100390.00;5056104;28;20216;-83
2021/08/17 00:16:32;;;;;;;7.40;2.23;;;;;;;13.15;76.35;100396.25;5055035;28;20207;-83
2021/08/17 00:18:59;;;;;;;8.10;1.93;;;;;;;13.16;76.59;100395.28;5054166;28;20235;-83
2021/08/17 00:21:25;;;;;;;7.77;2.20;;;;;;;13.15;76.68;100373.03;5052410;28;20238;-83
2021/08/17 00:23:52;;;;;;;6.47;2.23;;;;;;;13.15;76.87;100385.56;5059419;28;20288;-83
2021/08/17 00:26:19;;;;;;;7.30;2.00;;;;;;;13.15;77.17;100381.06;5054074;28;20288;-84
2021/08/17 00:28:45;;;;;;;6.00;2.03;;;;;;;13.14;77.82;100389.16;5055370;28;20206;-83
2021/08/17 00:31:13;;;;;;;5.20;1.80;;;;;;;13.14;77.87;100398.03;5055758;28;20227;-83
2021/08/17 00:33:39;;;;;;;7.20;2.63;;;;;;;13.12;78.35;100389.28;5055045;28;20213;-82
2021/08/17 00:36:07;;;;;;;5.87;2.10;;;;;;;13.12;78.67;100381.25;5073232;28;20219;-83
2021/08/17 00:38:35;;;;;;;6.87;1.83;;;;;;;13.10;78.67;100388.53;5062442;28;20209;-83
2021/08/17 00:41:01;;;;;;;8.83;2.23;;;;;;;13.06;79.30;100383.59;5054528;28;20229;-84
2021/08/17 00:43:28;;;;;;;7.03;1.93;;;;;;;13.05;79.47;100376.53;5072649;28;20221;-83
2021/08/17 00:45:54;;;;;;;6.17;2.20;;;;;;;13.04;79.65;100377.50;5072586;28;20690;-84
2021/08/17 00:48:22;;;;;;;5.73;1.83;;;;;;;13.03;80.19;100376.66;5064922;28;20201;-84
2021/08/17 00:50:49;;;;;;;4.73;1.80;;;;;;;13.00;80.19;100376.03;5073527;28;20221;-83
2021/08/17 00:53:15;;;;;;;7.03;2.53;;;;;;;13.01;80.14;100375.06;5054816;28;20292;-84
2021/08/17 00:55:42;;;;;;;7.80;2.57;;;;;;;13.03;80.73;100379.31;5058310;28;20209;-82
2021/08/17 00:58:09;;;;;;;5.67;1.80;;;;;;;13.04;80.89;100390.88;5056833;28;20202;-82
2021/08/17 01:00:35;;;;;;;6.17;1.80;;;;;;;13.04;80.72;100375.69;5062915;28;20599;-83
2021/08/17 01:03:02;;;;;;;4.60;1.77;;;;;;;13.04;80.84;100380.16;5054821;28;20208;-82
2021/08/17 01:05:31;;;;;;;7.17;2.03;;;;;;;13.06;81.27;100384.44;5054966;28;20557;-82
2021/08/17 01:07:59;;;;;;;6.20;1.77;;;;;;;13.06;81.14;100389.78;5041961;28;20209;-81
2021/08/17 01:10:25;;;;;;;4.90;1.70;;;;;;;13.09;81.56;100389.50;5062606;28;20243;-82
2021/08/17 01:12:52;;;;;;;7.17;2.17;;;;;;;13.12;81.56;100380.41;5061728;28;20201;-82
2021/08/17 01:15:18;;;;;;;4.87;1.60;;;;;;;13.11;81.56;100389.41;5054769;28;20697;-82
2021/08/17 01:17:45;;;;;;;4.53;1.60;;;;;;;13.14;81.58;100389.16;5054968;28;20554;-82
2021/08/17 01:20:14;;;;;;;3.53;1.63;;;;;;;13.14;81.86;100392.69;5054666;28;20226;-81
2021/08/17 01:22:43;;;;;;;5.13;2.00;;;;;;;13.15;81.60;100394.44;5053962;28;20666;-83
2021/08/17 01:25:11;;;;;;;7.03;2.20;;;;;;;13.16;81.65;100404.16;5054894;28;20213;-83
2021/08/17 01:27:40;;;;;;;5.20;2.10;;;;;;;13.19;81.71;100397.72;5060415;28;20198;-83
2021/08/17 01:30:07;;;;;;;4.13;1.90;;;;;;;13.19;82.15;100401.25;5054272;28;20691;-84
2021/08/17 01:32:34;;;;;;;6.47;2.10;;;;;;;13.19;82.19;100395.91;5052411;28;20586;-83
2021/08/17 01:35:01;;;;;;;6.43;2.60;;;;;;;13.19;82.19;100398.56;5056167;28;20653;-83
2021/08/17 01:37:28;;;;;;;5.77;2.43;;;;;;;13.22;82.08;100410.84;5059090;28;20198;-82
2021/08/17 01:40:01;;;;;;;5.90;2.87;;;;;;;13.22;82.20;100410.00;5055900;28;20402;-83
2021/08/17 01:42:28;;;;;;;6.20;2.67;;;;;;;13.23;82.25;100396.50;5056868;28;20201;-82
2021/08/17 01:44:58;;;;;;;7.30;2.50;;;;;;;13.27;82.62;100415.81;5057023;28;20235;-83
2021/08/17 01:47:26;;;;;;;7.73;2.83;;;;;;;13.27;82.64;100418.50;5057469;28;20569;-82
2021/08/17 01:49:52;;;;;;;6.77;2.60;;;;;;;13.27;82.46;100414.00;5057056;28;20201;-82
2021/08/17 01:52:19;;;;;;;8.03;2.80;;;;;;;13.30;82.46;100408.41;5057632;28;20209;-82
2021/08/17 01:54:45;;;;;;;5.63;2.13;;;;;;;13.31;82.63;100417.28;5057492;28;20671;-83
2021/08/17 01:57:12;;;;;;;8.40;3.00;;;;;;;13.34;82.55;100422.41;5065927;28;20209;-82
2021/08/17 01:59:38;;;;;;;9.90;3.13;;;;;;;13.35;82.67;100418.75;5056906;28;20225;-82
2021/08/17 02:02:08;;;;;;;10.63;3.50;;;;;;;13.34;82.79;100409.88;5056777;28;20236;-83
2021/08/17 02:04:35;;;;;;;8.97;3.60;;;;;;;13.39;82.34;100417.56;5056596;28;20217;-83
2021/08/17 02:07:02;;;;;;;8.70;3.17;;;;;;;13.40;82.11;100419.25;5056499;28;20217;-82
2021/08/17 02:09:29;;;;;;;11.70;3.30;;;;;;;13.41;81.99;100420.97;5060546;28;20208;-83
2021/08/17 02:11:55;;;;;;;13.90;3.57;;;;;;;13.41;81.91;100416.47;5076309;28;20629;-82
2021/08/17 02:14:22;;;;;;;8.70;3.03;;;;;;;13.43;81.93;100427.06;5057928;28;20205;-84
2021/08/17 02:16:48;;;;;;;13.33;3.60;;;;;;;13.45;81.78;100422.41;5052630;28;20727;-84
2021/08/17 02:19:16;;;;;;;12.27;3.70;;;;;;;13.47;82.09;100433.84;5054197;28;20296;-85
2021/08/17 02:21:43;;;;;;;9.90;3.63;;;;;;;13.49;81.56;100421.19;5055009;28;20324;-81
2021/08/17 02:24:09;;;;;;;11.13;4.37;;;;;;;13.50;81.57;100423.75;5061507;28;20206;-81
2021/08/17 02:26:36;;;;;;;15.13;4.17;;;;;;;13.46;81.24;100426.78;5063823;28;20204;-80
2021/08/17 02:29:03;;;;;;;14.90;4.50;;;;;;;13.47;81.50;100431.16;5069389;28;20210;-81
2021/08/17 02:31:30;;;;;;;10.80;3.90;;;;;;;13.49;81.62;100439.91;5057809;28;20213;-80
2021/08/17 02:33:56;;;;;;;9.57;3.70;;;;;;;13.51;81.49;100432.63;5058144;28;20259;-81
2021/08/17 02:36:24;;;;;;;9.43;3.77;;;;;;;13.53;81.03;100444.06;5058108;28;20206;-80
2021/08/17 02:38:51;;;;;;;12.07;3.67;;;;;;;13.52;80.94;100443.22;5058549;28;20239;-81
2021/08/17 02:41:17;;;;;;;11.37;4.17;;;;;;;13.54;80.69;100440.41;5058362;28;20240;-81
2021/08/17 02:43:44;;;;;;;13.80;4.20;;;;;;;13.55;80.53;100442.13;5057006;28;20197;-81
2021/08/17 02:46:10;;;;;;;9.87;3.40;;;;;;;13.55;80.31;100451.00;5061342;28;20221;-82
2021/08/17 02:48:37;;;;;;;9.53;3.40;;;;;;;13.55;80.59;100445.66;5063673;28;20216;-81
2021/08/17 02:51:03;;;;;;;11.37;3.60;;;;;;;13.56;80.37;100438.47;5063427;28;20219;-81
2021/08/17 02:53:31;;;;;;;11.40;3.20;;;;;;;13.57;80.23;100447.34;5058565;28;20725;-80
2021/08/17 02:55:58;;;;;;;9.60;3.67;;;;;;;13.59;79.77;100453.44;5067398;28;20681;-81
2021/08/17 02:58:24;;;;;;;13.50;3.40;;;;;;;13.58;79.67;100451.75;5059169;28;20215;-81
2021/08/17 03:00:51;;;;;;;12.13;3.10;;;;;;;13.56;79.63;100454.53;5058826;28;20229;-81
2021/08/17 03:03:17;;;;;;;10.50;3.63;;;;;;;13.58;79.72;100449.91;5058655;28;20209;-81
2021/08/17 03:05:44;;;;;;;9.77;3.77;;;;;;;13.59;79.52;100458.78;5058719;28;20201;-81
2021/08/17 03:08:10;;;;;;;8.40;3.20;;;;;;;13.61;79.80;100448.81;5058435;28;20570;-81
2021/08/17 03:10:40;;;;;;;8.70;2.90;;;;;;;13.58;78.97;100441.03;5058631;28;20228;-81
2021/08/17 03:13:08;;;;;;;11.83;4.10;;;;;;;13.59;79.11;100453.44;5058954;28;20205;-81
2021/08/17 03:15:35;;;;;;;17.10;3.83;;;;;;;13.57;78.81;100453.56;5057871;28;20209;-81
2021/08/17 03:18:02;;;;;;;9.83;3.47;;;;;;;13.56;78.63;100451.84;5063327;28;20208;-81
2021/08/17 03:20:30;;;;;;;11.97;3.60;;;;;;;13.57;78.51;100466.94;5062801;28;20229;-81
2021/08/17 03:22:57;;;;;;;14.60;4.20;;;;;;;13.57;78.71;100458.91;5058908;28;20206;-81
2021/08/17 03:25:25;;;;;;;8.77;3.37;;;;;;;13.56;78.64;100457.22;5058718;28;20197;-80
2021/08/17 03:27:54;;;;;;;8.10;3.40;;;;;;;13.54;78.48;100449.31;5058988;28;20211;-80
2021/08/17 03:30:23;;;;;;;12.57;3.03;;;;;;;13.51;78.04;100459.38;5058259;28;20229;-80
2021/08/17 03:32:50;;;;;;;10.40;3.23;;;;;;;13.49;77.81;100464.84;5058526;28;20731;-80
2021/08/17 03:35:17;;;;;;;9.50;2.87;;;;;;;13.50;78.06;100476.41;5058843;28;20571;-81
2021/08/17 03:37:44;;;;;;;9.37;2.90;;;;;;;13.52;77.83;100485.16;5058396;28;20201;-81
2021/08/17 03:40:14;;;;;;;11.47;3.43;;;;;;;13.54;77.83;100491.25;5057963;28;20233;-81
2021/08/17 03:42:41;;;;;;;10.87;3.33;;;;;;;13.52;77.89;100494.06;5057904;28;20209;-81
2021/08/17 03:45:11;;;;;;;11.40;3.50;;;;;;;13.53;77.77;100495.75;5050162;28;20285;-81
2021/08/17 03:47:38;;;;;;;8.37;2.93;;;;;;;13.53;77.69;100489.56;5057751;28;20194;-81
2021/08/17 03:50:06;;;;;;;7.03;2.97;;;;;;;13.54;77.92;100488.59;5058646;28;20221;-81
2021/08/17 03:52:33;;;;;;;7.77;3.00;;;;;;;13.54;77.91;100492.09;5058730;28;20213;-80
2021/08/17 03:54:59;;;;;;;11.43;3.30;;;;;;;13.56;78.04;100492.00;5058362;28;20568;-80
2021/08/17 03:57:26;;;;;;;9.47;3.53;;;;;;;13.55;77.66;100492.97;5059297;28;20213;-80
2021/08/17 03:59:52;;;;;;;7.67;2.90;;;;;;;13.50;77.50;100505.84;5057768;28;20201;-79
2021/08/17 04:02:20;;;;;;;9.57;3.07;;;;;;;13.48;77.20;100491.72;5059473;28;20661;-80
2021/08/17 04:04:48;;;;;;;6.50;2.60;;;;;;;13.48;77.27;100497.06;5054628;28;20208;-80
2021/08/17 04:07:14;;;;;;;8.43;3.23;;;;;;;13.49;77.35;100493.44;5055037;28;20237;-80
2021/08/17 04:09:41;;;;;;;13.20;3.77;;;;;;;13.48;77.25;100505.94;5056123;28;20300;-79
2021/08/17 04:12:08;;;;;;;13.67;3.60;;;;;;;13.50;77.23;100504.00;5050565;28;20202;-80
2021/08/17 04:14:35;;;;;;;7.70;2.77;;;;;;;13.49;77.48;100501.47;5048961;28;20653;-80
2021/08/17 04:17:01;;;;;;;7.77;3.23;;;;;;;13.49;77.42;100502.31;5056010;28;20208;-80
2021/08/17 04:19:32;;;;;;;8.47;2.40;;;;;;;13.49;77.33;100506.81;5047482;28;20215;-80
2021/08/17 04:22:00;;;;;;;8.97;2.70;;;;;;;13.50;76.77;100511.19;5058205;28;20225;-80
2021/08/17 04:24:27;;;;;;;7.17;3.07;;;;;;;13.49;76.72;100517.50;5055491;28;20213;-80
2021/08/17 04:26:59;;;;;;;14.53;3.43;;;;;;;13.48;76.58;100519.34;5055615;28;20732;-80
2021/08/17 04:29:32;;;;;;;9.73;3.57;;;;;;;13.48;76.46;100521.16;5052734;28;20682;-80
2021/08/17 04:31:58;;;;;;;10.07;2.80;;;;;;;13.46;76.63;100520.41;5053101;28;20734;-80
2021/08/17 04:34:25;;;;;;;7.97;2.60;;;;;;;13.49;76.27;100521.03;5054769;28;20196;-80
2021/08/17 04:36:53;;;;;;;9.90;3.03;;;;;;;13.48;76.50;100522.00;5055274;28;20296;-80
2021/08/17 04:39:19;;;;;;;10.43;2.90;;;;;;;13.49;76.12;100522.84;5055283;28;20209;-80
2021/08/17 04:41:46;;;;;;;7.03;2.90;;;;;;;13.49;76.47;100536.25;5054390;28;20563;-80
2021/08/17 04:44:12;;;;;;;6.80;3.20;;;;;;;13.50;76.21;100528.09;5054872;28;20210;-80
2021/08/17 04:46:39;;;;;;;11.90;2.77;;;;;;;13.49;75.93;100531.75;5054775;28;20205;-79
2021/08/17 04:49:07;;;;;;;8.40;2.77;;;;;;;13.50;76.13;100532.59;5054989;28;20211;-81
2021/08/17 04:51:34;;;;;;;11.00;3.07;;;;;;;13.50;75.67;100528.09;5054416;28;20229;-81
2021/08/17 04:54:01;;;;;;;6.73;2.57;;;;;;;13.50;75.78;100527.25;5054495;28;20211;-81
2021/08/17 04:56:31;;;;;;;6.67;3.23;;;;;;;13.49;75.56;100517.50;5055392;28;20210;-80
2021/08/17 04:58:57;;;;;;;9.07;2.63;;;;;;;13.47;75.64;100539.03;5055834;28;20555;-81
2021/08/17 05:01:24;;;;;;;11.13;3.57;;;;;;;13.49;75.82;100542.44;5057390;28;20225;-81
2021/08/17 05:03:51;;;;;;;9.83;2.83;;;;;;;13.50;75.62;100538.78;5059766;28;20216;-80
2021/08/17 05:06:17;;;;;;;9.10;3.13;;;;;;;13.50;75.41;100538.78;5058172;28;20227;-81
2021/08/17 05:08:48;;;;;;;9.20;2.93;;;;;;;13.51;75.56;100545.84;5058890;28;20241;-81
2021/08/17 05:11:17;;;;;;;8.87;2.93;;;;;;;13.51;74.95;100545.84;5063086;28;20214;-81
2021/08/17 05:13:44;;;;;;;8.70;2.83;;;;;;;13.52;74.99;100552.06;5059731;28;20212;-81
2021/08/17 05:16:13;;;;;;;8.27;2.40;;;;;;;13.52;74.93;100549.38;5071939;28;20264;-81
2021/08/17 05:18:40;;;;;;;12.83;3.37;;;;;;;13.54;75.02;100552.78;5059668;28;20300;-81
2021/08/17 05:21:06;;;;;;;5.80;2.53;;;;;;;13.55;74.81;100558.03;5059110;28;20233;-81
2021/08/17 05:23:33;;;;;;;7.70;2.93;;;;;;;13.57;75.17;100557.91;5059431;28;20205;-81
2021/08/17 05:25:59;;;;;;;6.20;2.80;;;;;;;13.60;75.18;100567.53;5059089;28;20194;-81
2021/08/17 05:28:27;;;;;;;10.43;2.50;;;;;;;13.62;74.83;100561.06;5059421;28;20259;-81
2021/08/17 05:30:54;;;;;;;7.63;2.60;;;;;;;13.61;74.81;100555.88;5058355;28;20228;-81
2021/08/17 05:33:20;;;;;;;9.70;3.00;;;;;;;13.62;74.99;100565.56;5037385;28;20304;-81
2021/08/17 05:35:47;;;;;;;10.37;3.00;;;;;;;13.64;74.49;100566.31;5037975;28;20210;-81
2021/08/17 05:38:13;;;;;;;12.43;3.77;;;;;;;13.63;74.77;100570.81;5038014;28;20210;-81
2021/08/17 05:40:42;;;;;;;6.20;2.63;;;;;;;13.64;74.29;100567.16;5065448;28;20231;-81
2021/08/17 05:43:10;;;;;;;11.87;2.87;;;;;;;13.68;74.60;100576.66;5064008;28;20304;-80
2021/08/17 05:45:40;;;;;;;6.97;2.80;;;;;;;13.71;74.32;100579.09;5057598;28;20209;-80
2021/08/17 05:48:10;;;;;;;8.27;2.90;;;;;;;13.75;74.32;100571.69;5058818;28;20715;-80
2021/08/17 05:50:36;;;;;;;10.10;2.60;;;;;;;13.77;73.66;100578.63;5077338;28;20222;-80
2021/08/17 05:53:03;;;;;;;12.20;2.77;;;;;;;13.81;73.96;100580.09;5077012;28;20213;-80
2021/08/17 05:55:29;;;;;;;12.77;2.97;;;;;;;13.87;73.50;100590.31;5068487;28;20223;-81
2021/08/17 05:57:57;;;;;;;11.20;2.13;;;;;;;13.88;73.44;100586.69;5049721;28;20202;-81
2021/08/17 06:00:24;;;;;;;12.90;2.73;;;;;;;13.88;73.13;100586.69;5054010;28;20229;-81
2021/08/17 06:02:56;;;;;;;14.43;3.00;;;;;;;13.91;72.93;100593.63;5053713;28;20210;-81
2021/08/17 06:05:26;;;;;;;7.00;2.23;;;;;;;13.92;72.86;100594.47;5063160;28;20207;-81
2021/08/17 06:07:52;;;;;;;10.70;3.03;;;;;;;13.92;72.27;100602.50;5060017;28;20206;-81
2021/08/17 06:10:19;;;;;;;7.43;2.37;;;;;;;13.93;72.35;100602.38;5057846;28;20222;-81
2021/08/17 06:12:46;;;;;;;7.93;2.53;;;;;;;13.95;72.58;100600.44;5068180;28;20200;-81
2021/08/17 06:15:15;;;;;;;6.47;2.20;;;;;;;14.00;72.54;100611.63;5053166;28;20198;-81
2021/08/17 06:17:42;;;;;;;10.37;2.77;;;;;;;14.03;71.98;100603.34;5066257;28;20235;-81
2021/08/17 06:20:14;;;;;;;9.80;2.53;;;;;;;14.11;71.92;100614.34;5068591;28;20226;-82
2021/08/17 06:22:41;;;;;;;8.57;2.37;;;;;;;14.21;71.44;100606.41;5064123;28;20660;-81
2021/08/17 06:25:09;;;;;;;8.20;2.50;;;;;;;14.30;71.23;100605.69;5064358;28;20575;-81
2021/08/17 06:27:37;;;;;;;12.33;2.80;;;;;;;14.41;71.49;100608.41;5051716;28;20209;-80
2021/08/17 06:30:05;;;;;;;7.70;2.20;;;;;;;14.50;71.23;100605.00;5055462;28;20208;-81
2021/08/17 06:32:34;;;;;;;6.83;1.93;;;;;;;14.56;70.75;100607.16;5056157;28;20232;-81
2021/08/17 06:35:00;;;;;;;6.43;2.10;;;;;;;14.66;70.26;100609.97;5066113;28;20211;-82
2021/08/17 06:37:28;;;;;;;6.30;2.20;;;;;;;14.74;70.19;100595.94;5066718;28;20643;-81
2021/08/17 06:39:55;;;;;;;9.73;2.47;;;;;;;14.80;69.62;100611.53;5058833;28;20574;-81
2021/08/17 06:42:21;;;;;;;10.07;2.47;;;;;;;14.81;69.04;100599.81;5040307;28;20230;-82
2021/08/17 06:44:48;;;;;;;10.17;2.27;;;;;;;14.83;69.17;100596.03;5038713;28;20716;-82
2021/08/17 06:47:17;;;;;;;8.27;2.13;;;;;;;14.86;68.85;100598.47;5038352;28;20210;-82
2021/08/17 06:49:44;;;;;;;9.73;2.00;;;;;;;14.86;68.30;100603.00;5038603;28;20200;-83
2021/08/17 06:52:11;;;;;;;6.60;1.93;;;;;;;14.92;68.90;100605.16;5040920;28;20202;-83
2021/08/17 06:54:41;;;;;;;7.67;2.33;;;;;;;14.95;67.98;100604.91;5054414;28;20206;-83
2021/08/17 06:57:09;;;;;;;7.60;2.00;;;;;;;14.99;68.20;100600.16;5068503;28;20280;-82
2021/08/17 06:59:35;;;;;;;8.73;2.17;;;;;;;15.04;67.79;100604.16;5073568;28;20233;-83
2021/08/17 07:02:02;;;;;;;8.10;1.77;;;;;;;15.12;68.12;100609.72;5057524;28;20238;-83
2021/08/17 07:04:29;;;;;;;16.30;2.37;;;;;;;15.19;67.80;100616.28;5057479;28;20209;-83
2021/08/17 07:06:55;;;;;;;9.83;2.20;;;;;;;15.31;67.40;100619.78;5065334;28;20201;-83
2021/08/17 07:09:22;;;;;;;6.60;1.80;;;;;;;15.40;67.09;100612.81;5079908;28;20217;-82
2021/08/17 07:11:50;;;;;;;7.60;2.20;;;;;;;15.48;66.23;100613.84;5079892;28;20223;-83
2021/08/17 07:14:16;;;;;;;10.57;1.80;;;;;;;15.57;66.17;100607.75;5063777;28;20207;-83
2021/08/17 07:16:43;;;;;;;8.37;2.10;;;;;;;15.70;65.80;100622.81;5062635;28;20198;-83
2021/08/17 07:19:09;;;;;;;5.83;1.73;;;;;;;15.80;64.90;100612.97;5076771;28;20205;-83
2021/08/17 07:21:39;;;;;;;7.73;2.20;;;;;;;15.86;64.65;100612.44;5076969;28;20655;-83
2021/08/17 07:24:05;;;;;;;5.80;1.47;;;;;;;15.95;64.63;100609.81;5058988;28;20205;-83
2021/08/17 07:26:32;;;;;;;6.63;2.03;;;;;;;16.01;63.81;100621.00;5061709;28;20534;-82
2021/08/17 07:29:00;;;;;;;4.30;1.50;;;;;;;16.03;63.47;100617.22;5050444;28;20207;-83
2021/08/17 07:31:26;;;;;;;4.90;2.07;;;;;;;16.06;63.48;100624.16;5052844;28;20222;-82
2021/08/17 07:33:53;;;;;;;9.10;2.13;;;;;;;16.12;63.59;100607.53;5059880;28;20214;-82
2021/08/17 07:36:20;;;;;;;7.43;1.97;;;;;;;16.22;63.40;100619.16;5057436;28;20216;-82
2021/08/17 07:38:46;;;;;;;5.63;1.77;;;;;;;16.26;62.62;100626.81;5064029;28;20300;-80
2021/08/17 07:41:16;;;;;;;6.70;2.30;;;;;;;16.30;62.56;100620.16;5057569;28;20767;-80
2021/08/17 07:43:42;;;;;;;8.47;2.50;;;;;;;16.32;62.04;100620.03;5046331;28;20203;-80
2021/08/17 07:46:10;;;;;;;8.30;2.53;;;;;;;16.40;62.02;100619.38;5050875;28;20215;-80
2021/08/17 07:48:40;;;;;;;9.23;2.27;;;;;;;16.48;61.96;100625.75;5064392;28;20206;-80
2021/08/17 07:51:07;;;;;;;9.90;2.57;;;;;;;16.52;61.45;100635.25;5058767;28;20310;-80
2021/08/17 07:53:33;;;;;;;6.30;1.77;;;;;;;16.61;61.32;100634.47;5059370;28;20209;-80
2021/08/17 07:56:00;;;;;;;4.33;1.80;;;;;;;16.76;61.31;100639.50;5058590;28;20264;-80
2021/08/17 07:58:26;;;;;;;4.43;1.50;;;;;;;16.86;60.94;100640.34;5058481;28;20212;-80
2021/08/17 08:00:53;;;;;;;7.13;1.80;;;;;;;16.95;60.41;100636.84;5056765;28;20219;-80
2021/08/17 08:03:21;;;;;;;4.93;1.70;;;;;;;17.02;60.03;100643.38;5050651;28;20242;-80
2021/08/17 08:05:48;;;;;;;4.77;1.57;;;;;;;17.09;60.38;100636.47;5064584;28;20719;-80
2021/08/17 08:08:16;;;;;;;5.50;2.03;;;;;;;17.19;59.51;100631.94;5066247;28;20291;-80
2021/08/17 08:10:45;;;;;;;6.03;1.50;;;;;;;17.25;59.28;100626.00;5057978;28;20228;-80
2021/08/17 08:13:11;;;;;;;5.33;1.90;;;;;;;17.33;58.74;100628.00;5058282;28;20203;-79
2021/08/17 08:15:38;;;;;;;6.83;1.77;;;;;;;17.41;58.64;100632.66;5054013;28;20204;-80
2021/08/17 08:18:05;;;;;;;5.30;1.87;;;;;;;17.43;58.19;100615.38;5056991;28;20207;-80
2021/08/17 08:20:33;;;;;;;9.17;1.97;;;;;;;17.50;57.99;100610.28;5060848;28;20724;-80
2021/08/17 08:23:00;;;;;;;5.90;2.13;;;;;;;17.51;57.75;100610.13;5054633;28;20224;-80
2021/08/17 08:25:26;;;;;;;10.13;1.90;;;;;;;17.51;57.77;100603.91;5055628;28;20202;-80
2021/08/17 08:27:53;;;;;;;9.30;1.67;;;;;;;17.51;57.68;100614.66;5060008;28;20207;-80
2021/08/17 08:30:20;;;;;;;5.23;2.07;;;;;;;17.47;57.60;100618.63;5050450;28;20232;-81
2021/08/17 08:32:46;;;;;;;7.20;2.07;;;;;;;17.48;57.68;100618.50;5048934;28;20212;-79
2021/08/17 08:35:13;;;;;;;8.03;2.00;;;;;;;17.54;57.92;100614.38;5044736;28;20574;-80
2021/08/17 08:37:41;;;;;;;6.03;1.90;;;;;;;17.60;58.06;100629.97;5050841;28;20219;-80
2021/08/17 08:40:10;;;;;;;7.90;1.80;;;;;;;17.60;57.49;100629.97;5052788;28;20221;-81
2021/08/17 08:42:36;;;;;;;7.17;2.13;;;;;;;17.59;57.55;100639.88;5044204;28;20221;-80
2021/08/17 08:45:04;;;;;;;7.33;2.20;;;;;;;17.66;57.77;100641.06;5055844;28;20205;-81
2021/08/17 08:47:33;;;;;;;4.70;2.03;;;;;;;17.73;57.92;100648.56;5057493;28;20216;-81
2021/08/17 08:50:01;;;;;;;11.50;2.80;;;;;;;17.77;57.58;100633.81;5057030;28;20200;-81
2021/08/17 08:52:27;;;;;;;12.40;3.17;;;;;;;17.77;55.83;100642.72;5057162;28;20210;-81
2021/08/17 08:54:55;;;;;;;6.70;2.17;;;;;;;17.79;56.82;100642.59;5056833;28;20206;-81
2021/08/17 08:57:22;;;;;;;10.93;2.00;;;;;;;17.78;56.56;100639.03;5057105;28;20208;-81
2021/08/17 08:59:48;;;;;;;3.80;1.90;;;;;;;17.75;56.38;100642.03;5056742;28;20214;-81
2021/08/17 09:02:18;;;;;;;8.60;2.40;;;;;;;17.74;56.31;100629.53;5056709;28;20229;-80
2021/08/17 09:04:51;;;;;;;7.87;2.40;;;;;;;17.71;56.46;100629.84;5055655;28;20619;-81
2021/08/17 09:07:32;;;;;;;6.63;2.20;;;;;;;17.74;56.60;100634.09;5056018;28;20609;-81
2021/08/17 09:10:03;;;;;;;6.10;2.33;;;;;;;17.74;56.42;100629.53;5056526;28;20215;-81
2021/08/17 09:12:35;;;;;;;6.77;2.90;;;;;;;17.80;56.92;100637.06;5035981;28;20189;-81
2021/08/17 09:15:10;;;;;;;7.53;2.60;;;;;;;17.87;56.36;100630.13;5036495;28;20199;-81
2021/08/17 09:17:37;;;;;;;8.67;2.70;;;;;;;17.96;56.60;100626.53;5036438;28;20628;-80
2021/08/17 09:20:05;;;;;;;11.00;3.10;;;;;;;18.08;56.57;100629.09;5036293;28;20292;-81
2021/08/17 09:22:32;;;;;;;5.30;2.57;;;;;;;18.16;56.30;100627.34;5046272;28;20226;-81
2021/08/17 09:25:03;;;;;;;9.67;2.90;;;;;;;18.22;55.96;100626.78;5058308;28;20212;-81
2021/08/17 09:27:31;;;;;;;9.73;3.37;;;;;;;18.27;55.71;100626.34;5046438;28;20633;-80
2021/08/17 09:30:04;;;;;;;7.27;3.17;;;;;;;18.23;55.52;100601.50;5045209;28;20229;-80
2021/08/17 09:32:31;;;;;;;8.23;2.73;;;;;;;18.21;55.73;100630.47;5038258;28;20221;-80
2021/08/17 09:34:59;;;;;;;10.43;3.07;;;;;;;18.24;56.16;100640.94;5056156;28;20286;-81
2021/08/17 09:37:28;;;;;;;7.73;3.20;;;;;;;18.25;56.02;100637.25;5050459;28;20215;-81
2021/08/17 09:39:55;;;;;;;5.67;2.50;;;;;;;18.24;55.83;100634.72;5056263;28;20268;-81
2021/08/17 09:42:25;;;;;;;8.87;2.70;;;;;;;18.24;55.83;100618.53;5056135;28;20292;-81
2021/08/17 09:45:13;;;;;;;6.37;2.90;;;;;;;18.27;55.97;100629.03;5036948;28;20207;-81
2021/08/17 09:47:41;;;;;;;5.83;3.40;;;;;;;18.28;55.88;100636.09;5036642;28;20657;-81
2021/08/17 09:50:23;;;;;;;8.40;3.10;;;;;;;18.32;56.02;100624.03;5035924;28;20233;-81
2021/08/17 09:52:51;;;;;;;7.60;3.53;;;;;;;18.28;55.36;100630.69;5047334;28;20258;-82
2021/08/17 09:55:20;;;;;;;6.57;3.10;;;;;;;18.26;55.69;100630.03;5053363;28;20193;-81
2021/08/17 09:57:48;;;;;;;7.03;3.27;;;;;;;18.27;55.81;100626.34;5054990;28;20210;-81
2021/08/17 10:00:17;;;;;;;7.90;3.40;;;;;;;18.32;55.87;100630.25;5054829;28;20576;-81
2021/08/17 10:02:45;;;;;;;6.97;3.43;;;;;;;18.33;55.67;100629.28;5054863;28;20352;-81
2021/08/17 10:05:13;;;;;;;12.27;3.70;;;;;;;18.36;55.56;100633.53;5055346;28;20244;-81
2021/08/17 10:07:40;;;;;;;8.13;3.30;;;;;;;18.38;55.55;100632.38;5056765;28;20570;-80
2021/08/17 10:10:08;;;;;;;9.20;3.80;;;;;;;18.42;55.89;100629.41;5056295;28;20246;-81
2021/08/17 10:12:36;;;;;;;6.47;3.67;;;;;;;18.44;55.69;100624.72;5056429;28;20712;-80
2021/08/17 10:15:06;;;;;;;7.30;3.47;;;;;;;18.46;55.73;100622.69;5056841;28;20210;-80
2021/08/17 10:17:32;;;;;;;7.87;3.30;;;;;;;18.45;55.02;100621.84;5068201;28;20719;-80
2021/08/17 10:19:59;;;;;;;8.73;3.80;;;;;;;18.43;54.47;100637.34;5056076;28;20209;-80
2021/08/17 10:22:26;;;;;;;8.47;4.03;;;;;;;18.41;54.67;100622.31;5056680;28;20232;-81
2021/08/17 10:25:04;;;;;;;6.13;3.30;;;;;;;18.42;54.89;100622.16;5055963;28;20223;-81
2021/08/17 10:27:33;;;;;;;9.27;3.77;;;;;;;18.44;54.87;100625.56;5061859;28;20204;-81
2021/08/17 10:30:10;;;;;;;10.97;4.07;;;;;;;18.45;54.65;100624.53;5074601;28;20202;-80
2021/08/17 10:32:49;;;;;;;6.47;2.97;;;;;;;18.45;54.91;100634.50;5035487;28;20259;-81
2021/08/17 10:35:53;;;;;;;6.03;3.63;;;;;;;18.51;54.73;100623.94;5036061;28;20223;-81
2021/08/17 10:38:43;;;;;;;7.90;3.20;;;;;;;18.63;55.21;100628.19;5036567;28;20196;-81
2021/08/17 10:41:10;;;;;;;9.80;4.13;;;;;;;18.79;54.93;100624.84;5036189;28;20230;-81
2021/08/17 10:44:13;;;;;;;9.30;4.27;;;;;;;18.93;54.40;100626.19;5036756;28;20227;-81
2021/08/17 10:46:53;;;;;;;5.57;3.40;;;;;;;19.00;53.59;100622.72;5036307;28;20193;-81
2021/08/17 10:49:31;;;;;;;6.57;3.97;;;;;;;19.01;53.01;100629.81;5035618;28;20276;-81
2021/08/17 10:51:59;;;;;;;5.80;4.00;;;;;;;19.05;52.64;100633.06;5035632;28;20713;-81
2021/08/17 10:54:26;;;;;;;7.83;4.20;;;;;;;19.10;52.84;100627.22;5036430;28;20217;-81
2021/08/17 10:56:53;;;;;;;8.03;4.40;;;;;;;19.12;52.25;100622.50;5036015;28;20208;-81
2021/08/17 10:59:39;;;;;;;7.27;4.83;;;;;;;19.17;52.12;100634.53;5035340;28;20206;-81
2021/08/17 11:02:08;;;;;;;7.10;5.00;;;;;;;19.20;51.97;100627.97;5035818;28;20228;-81
2021/08/17 11:04:40;;;;;;;10.10;4.83;;;;;;;19.26;51.70;100630.09;5048948;28;20282;-81
2021/08/17 11:07:32;;;;;;;8.47;4.53;;;;;;;19.27;51.43;100629.06;5055535;28;20217;-81
2021/08/17 11:10:01;;;;;;;11.00;5.37;;;;;;;19.29;51.41;100627.06;5036253;28;20634;-81
2021/08/17 11:12:35;;;;;;;7.27;4.80;;;;;;;19.28;51.29;100628.94;5035408;28;20647;-81
2021/08/17 11:15:04;;;;;;;7.03;5.07;;;;;;;19.29;51.56;100616.28;5035948;28;20644;-81
2021/08/17 11:17:32;;;;;;;6.83;4.80;;;;;;;19.31;51.14;100623.22;5034665;28;20672;-81
2021/08/17 11:19:58;;;;;;;9.07;5.47;;;;;;;19.37;50.90;100619.88;5034213;28;20215;-81
2021/08/17 11:22:27;;;;;;;8.57;5.60;;;;;;;19.43;50.68;100627.38;5034488;28;20712;-81
2021/08/17 11:24:56;;;;;;;9.27;5.67;;;;;;;19.46;50.67;100623.53;5044625;28;20206;-81
2021/08/17 11:27:24;;;;;;;8.03;5.83;;;;;;;19.49;50.56;100627.78;5053917;28;20215;-81
2021/08/17 11:29:54;;;;;;;7.37;5.40;;;;;;;19.49;50.62;100638.56;5055258;28;20218;-81